»·PEaware :: SKW1531 KBOI-KPDX

SKW1531 :: KBOI-KPDX

FLIGHT INFORMATION

Flight Status: Arrived
Operator:
SkyWest Airlines
More flights by this operator :: More flights under this callsign
Pilot: Ben F. (13029)
Aircraft: EMBRAER ERJ-145
(E145)
More flights by this aircraft type
Origin: KBOI Boise Air Terminal/Gowen
United States
Destination: KPDX Portland Intl
United States
More flights between these airports :: More routes between these airports
Route: BOI3 BOI SAILL BUEEL JOTBA HHOOD4
File this flight plan on PilotEdge
Remarks: RMK / SIMBRIEF
Altitude:
(Current/Filed)
36,000ft
Speed:
(Current/Filed)
456kts
Departed: 28-Jun-19 06:40 PM
Arrived: 28-Jun-19 07:38 PM
Distance/Time
Traveled:
298nm/0:57
Distance/Time
To Go:
Arrived

Flight Plot

Page will automatically refresh every two minutes.

Flight plan parsing failed; only flown route is shown


Map Options




Map Legend


Flown Route
Filed Route
Departure Airport
Arrival Airport
Navaid (VOR, NDB)
Fix

Horizontal Profiles

Position Reports

Time Latitude Longitude Heading Altitude Ground
Speed
28-Jun-19 18:02 43.568063 -116.223079 310 2848ft 0kts
28-Jun-19 18:03 43.568063 -116.223079 310 2848ft 0kts
28-Jun-19 18:04 43.568063 -116.223079 310 2848ft 0kts
28-Jun-19 18:05 43.568063 -116.223079 310 2848ft 0kts
28-Jun-19 18:06 43.568063 -116.223079 310 2848ft 0kts
28-Jun-19 18:07 43.568063 -116.223079 310 2848ft 0kts
28-Jun-19 18:08 43.568063 -116.223079 310 2848ft 0kts
28-Jun-19 18:09 43.568063 -116.223079 310 2848ft 0kts
28-Jun-19 18:10 43.568063 -116.223079 310 2848ft 0kts
28-Jun-19 18:11 43.568063 -116.223079 310 2848ft 0kts
28-Jun-19 18:12 43.568063 -116.223079 310 2848ft 0kts
28-Jun-19 18:13 43.568063 -116.223079 310 2848ft 0kts
28-Jun-19 18:14 43.568063 -116.223079 310 2848ft 0kts
28-Jun-19 18:15 43.568063 -116.223079 310 2848ft 0kts
28-Jun-19 18:16 43.568063 -116.223079 310 2848ft 0kts
28-Jun-19 18:17 43.568063 -116.223079 310 2848ft 0kts
28-Jun-19 18:18 43.568063 -116.223079 310 2848ft 0kts
28-Jun-19 18:19 43.568063 -116.223079 310 2848ft 0kts
28-Jun-19 18:20 43.568063 -116.223079 310 2848ft 0kts
28-Jun-19 18:21 43.568063 -116.223079 310 2848ft 0kts
28-Jun-19 18:22 43.568063 -116.223079 310 2848ft 0kts
28-Jun-19 18:23 43.568063 -116.223079 310 2848ft 0kts
28-Jun-19 18:24 43.568063 -116.223079 310 2848ft 0kts
28-Jun-19 18:25 43.568063 -116.223079 310 2848ft 0kts
28-Jun-19 18:26 43.568063 -116.223079 310 2848ft 0kts
28-Jun-19 18:27 43.568063 -116.223079 310 2848ft 0kts
28-Jun-19 18:28 43.567889 -116.222906 324 2848ft 2kts
28-Jun-19 18:29 43.567809 -116.222630 236 2848ft 0kts
28-Jun-19 18:30 43.567809 -116.222631 236 2848ft 0kts
28-Jun-19 18:31 43.567809 -116.222631 236 2848ft 0kts
28-Jun-19 18:32 43.567809 -116.222631 236 2848ft 0kts
28-Jun-19 18:33 43.567766 -116.222718 236 2848ft 1kts
28-Jun-19 18:34 43.566986 -116.223841 283 2847ft 6kts
28-Jun-19 18:35 43.568233 -116.227558 295 2842ft 12kts
28-Jun-19 18:36 43.570421 -116.233970 295 2832ft 22kts
28-Jun-19 18:37 43.570539 -116.240988 254 2818ft 4kts
28-Jun-19 18:38 43.570504 -116.241168 255 2818ft 4kts
28-Jun-19 18:39 43.565890 -116.230451 115 2840ft 134kts
28-Jun-19 18:40 43.546420 -116.166029 110 5179ft 241kts
28-Jun-19 18:41 43.522807 -116.081188 112 8068ft 238kts
28-Jun-19 18:42 43.484554 -116.012428 186 10920ft 247kts
28-Jun-19 18:43 43.473754 -116.087883 312 13941ft 291kts
28-Jun-19 18:44 43.534305 -116.169464 300 16773ft 316kts
28-Jun-19 18:45 43.560006 -116.282825 278 19642ft 320kts
28-Jun-19 18:46 43.584381 -116.403128 277 22451ft 333kts
28-Jun-19 18:47 43.609270 -116.526701 275 25248ft 336kts
28-Jun-19 18:48 43.633931 -116.649873 274 28016ft 330kts
28-Jun-19 18:49 43.657659 -116.769060 271 30820ft 312kts
28-Jun-19 18:50 43.679384 -116.878763 268 33527ft 281kts
28-Jun-19 18:51 43.699626 -116.981840 267 34935ft 281kts
28-Jun-19 18:52 43.720096 -117.086458 265 36040ft 287kts
28-Jun-19 18:53 43.753078 -117.197374 274 36104ft 328kts
28-Jun-19 18:54 43.791084 -117.318527 276 36082ft 359kts
28-Jun-19 18:55 43.832549 -117.450960 277 36086ft 390kts
28-Jun-19 18:56 43.877531 -117.594145 283 36075ft 429kts
28-Jun-19 18:57 43.944616 -117.740851 288 36097ft 464kts
28-Jun-19 18:58 44.015399 -117.894603 288 36097ft 483kts
28-Jun-19 19:00 44.087387 -118.051887 289 36124ft 492kts
28-Jun-19 19:01 44.161018 -118.213634 289 36106ft 495kts
28-Jun-19 19:02 44.234345 -118.375624 289 36108ft 494kts
28-Jun-19 19:03 44.307484 -118.538131 289 36104ft 495kts
28-Jun-19 19:04 44.379817 -118.699758 288 36117ft 496kts
28-Jun-19 19:05 44.452690 -118.863593 289 36123ft 495kts
28-Jun-19 19:06 44.524999 -119.027012 291 36117ft 494kts
28-Jun-19 19:07 44.596868 -119.190182 291 36120ft 493kts
28-Jun-19 19:08 44.668760 -119.354588 291 34995ft 497kts
28-Jun-19 19:09 44.740823 -119.520243 291 33800ft 495kts
28-Jun-19 19:10 44.811874 -119.684591 291 32610ft 489kts
28-Jun-19 19:11 44.882150 -119.848047 291 31471ft 488kts
28-Jun-19 19:12 44.951395 -120.009975 291 30322ft 474kts
28-Jun-19 19:13 45.018265 -120.167395 292 29177ft 462kts
28-Jun-19 19:14 45.083442 -120.321543 294 27716ft 449kts
28-Jun-19 19:15 45.145063 -120.468091 295 25196ft 416kts
28-Jun-19 19:16 45.199954 -120.605580 293 22941ft 387kts
28-Jun-19 19:17 45.250395 -120.736433 293 21303ft 367kts
28-Jun-19 19:18 45.298186 -120.860997 293 19788ft 353kts
28-Jun-19 19:18 45.336954 -120.962503 294 18375ft 350kts
28-Jun-19 19:20 45.390437 -121.103035 295 16192ft 337kts
28-Jun-19 19:20 45.426648 -121.198875 292 14912ft 325kts
28-Jun-19 19:22 45.455626 -121.339885 283 13274ft 308kts
28-Jun-19 19:23 45.478735 -121.457013 284 12552ft 303kts
28-Jun-19 19:23 45.497521 -121.552099 284 11353ft 294kts
28-Jun-19 19:24 45.519271 -121.662799 283 9740ft 285kts
28-Jun-19 19:26 45.531954 -121.785228 272 8285ft 255kts
28-Jun-19 19:26 45.534968 -121.867408 273 7101ft 241kts
28-Jun-19 19:27 45.538283 -121.959190 274 6699ft 227kts
28-Jun-19 19:28 45.541691 -122.049396 263 6701ft 227kts
28-Jun-19 19:29 45.533561 -122.140788 263 5899ft 242kts
28-Jun-19 19:30 45.525679 -122.226191 263 3498ft 201kts
28-Jun-19 19:31 45.519219 -122.295455 262 2344ft 163kts
28-Jun-19 19:32 45.513092 -122.360747 262 2000ft 165kts
28-Jun-19 19:33 45.526608 -122.418056 295 1998ft 154kts
28-Jun-19 19:34 45.546812 -122.473331 301 1697ft 160kts
28-Jun-19 19:35 45.567761 -122.526406 300 699ft 153kts
28-Jun-19 19:36 45.586898 -122.575383 299 36ft 124kts
28-Jun-19 19:37 45.591855 -122.588490 287 35ft 10kts
28-Jun-19 19:38 45.592113 -122.590975 271 35ft 3kts
28-Jun-19 19:39 45.592533 -122.595173 299 35ft 12kts
28-Jun-19 19:40 45.591465 -122.599207 242 35ft 10kts
28-Jun-19 19:41 45.590520 -122.599884 158 35ft 0kts
28-Jun-19 19:42 45.590521 -122.599884 158 35ft 0kts

Navigation Log

Ident Type
Flight plan parsing failed, navigation log unavailable